createdAt,value
2023-03-26T00:01:08.714Z,22.42
2023-03-26T00:03:35.816Z,25.02
2023-03-26T00:06:03.416Z,24.88
2023-03-26T00:08:29.944Z,22.63
2023-03-26T00:10:56.357Z,18.50
2023-03-26T00:13:22.824Z,19.67
2023-03-26T00:15:49.278Z,27.35
2023-03-26T00:18:15.924Z,15.00
2023-03-26T00:20:42.443Z,22.38
2023-03-26T00:23:08.916Z,18.15
2023-03-26T00:25:38.269Z,21.75
2023-03-26T00:28:06.196Z,15.63
2023-03-26T00:30:33.633Z,24.73
2023-03-26T00:33:00.114Z,26.27
2023-03-26T00:35:26.605Z,22.50
2023-03-26T00:37:53.432Z,23.00
2023-03-26T00:47:40.433Z,26.55
2023-03-26T00:50:07.638Z,27.42
2023-03-26T00:52:36.145Z,33.50
2023-03-26T00:55:03.023Z,30.40
2023-03-26T01:00:15.960Z,27.55
2023-03-26T01:02:45.083Z,41.15
2023-03-26T01:05:30.543Z,44.53
2023-03-26T01:08:15.037Z,37.72
2023-03-26T01:10:42.363Z,42.83
2023-03-26T01:13:09.278Z,40.83
2023-03-26T01:15:37.294Z,42.00
2023-03-26T01:18:05.462Z,41.78
2023-03-26T01:20:32.902Z,47.67
2023-03-26T01:23:02.198Z,41.58
2023-03-26T01:25:31.968Z,53.58
2023-03-26T01:27:58.584Z,45.45
2023-03-26T01:30:41.629Z,44.40
2023-03-26T01:33:22.202Z,54.53
2023-03-26T01:36:00.698Z,48.22
2023-03-26T01:38:46.838Z,47.60
2023-03-26T01:41:17.173Z,54.83
2023-03-26T01:43:56.794Z,43.47
2023-03-26T01:46:23.722Z,51.38
2023-03-26T01:51:26.528Z,57.25
2023-03-26T01:53:53.677Z,48.75
2023-03-26T01:56:26.124Z,52.70
2023-03-26T01:59:08.665Z,63.03
2023-03-26T02:02:14.133Z,63.55
2023-03-26T02:04:53.025Z,46.28
2023-03-26T02:07:34.912Z,57.78
2023-03-26T02:10:08.176Z,49.30
2023-03-26T02:12:39.020Z,60.33
2023-03-26T02:17:33.068Z,52.60
2023-03-26T02:20:05.846Z,56.47
2023-03-26T02:22:40.729Z,53.50
2023-03-26T02:25:09.840Z,70.03
2023-03-26T02:27:36.778Z,57.17
2023-03-26T02:30:04.769Z,66.75
2023-03-26T02:32:31.755Z,62.30
2023-03-26T02:34:58.610Z,59.40
2023-03-26T02:37:25.298Z,58.80
2023-03-26T02:40:00.800Z,60.42
2023-03-26T02:42:31.630Z,59.47
2023-03-26T02:44:58.275Z,52.58
2023-03-26T02:47:43.564Z,52.95
2023-03-26T02:50:50.180Z,50.88
2023-03-26T02:53:24.023Z,50.70
2023-03-26T02:55:58.925Z,43.00
2023-03-26T02:58:27.226Z,40.63
2023-03-26T03:00:56.781Z,48.55
2023-03-26T03:03:32.489Z,51.88
2023-03-26T03:06:18.743Z,46.78
2023-03-26T03:08:50.611Z,51.65
2023-03-26T03:11:18.291Z,46.25
2023-03-26T03:13:49.612Z,51.33
2023-03-26T03:16:20.084Z,54.30
2023-03-26T03:18:54.036Z,53.38
2023-03-26T03:21:22.431Z,49.15
2023-03-26T03:23:49.053Z,48.20
2023-03-26T03:26:17.299Z,47.42
2023-03-26T03:28:50.774Z,44.80
2023-03-26T03:31:17.783Z,45.90
2023-03-26T03:33:46.253Z,53.58
2023-03-26T03:36:19.958Z,61.78
2023-03-26T03:38:51.220Z,43.67
2023-03-26T03:41:20.361Z,46.38
2023-03-26T03:46:20.598Z,41.70
2023-03-26T03:48:49.856Z,53.83
2023-03-26T03:51:27.326Z,46.10
2023-03-26T03:53:58.511Z,42.70
2023-03-26T03:56:48.805Z,50.65
2023-03-26T03:59:53.583Z,45.20
2023-03-26T04:02:26.314Z,59.95
2023-03-26T04:04:57.551Z,53.80
2023-03-26T04:07:28.035Z,49.05
2023-03-26T04:10:08.325Z,55.08
2023-03-26T04:12:58.089Z,47.80
2023-03-26T04:15:44.090Z,42.55
2023-03-26T04:18:10.591Z,42.55
2023-03-26T04:20:40.984Z,48.65
2023-03-26T04:23:13.958Z,52.58
2023-03-26T04:25:48.370Z,60.75
2023-03-26T04:28:42.240Z,50.85
2023-03-26T04:31:24.716Z,55.67
2023-03-26T04:33:56.323Z,48.15
2023-03-26T04:36:27.103Z,52.85
2023-03-26T04:38:54.056Z,56.75
2023-03-26T04:41:26.946Z,52.35
2023-03-26T04:43:57.759Z,62.70
2023-03-26T04:46:45.227Z,48.97
2023-03-26T04:49:19.123Z,55.40
2023-03-26T04:51:47.081Z,56.83
2023-03-26T04:54:36.322Z,47.25
2023-03-26T04:57:09.412Z,37.38
2023-03-26T04:59:45.908Z,44.47
2023-03-26T05:02:14.180Z,55.17
2023-03-26T05:04:49.895Z,53.97
2023-03-26T05:07:18.676Z,61.78
2023-03-26T05:09:48.623Z,55.38
2023-03-26T05:12:16.571Z,53.95
2023-03-26T05:15:06.529Z,46.42
2023-03-26T05:17:53.153Z,57.88
2023-03-26T05:20:27.060Z,47.17
2023-03-26T05:22:53.810Z,50.08
2023-03-26T05:25:25.638Z,56.72
2023-03-26T05:27:52.549Z,54.78
2023-03-26T05:30:21.477Z,48.88
2023-03-26T05:32:53.466Z,53.58
2023-03-26T05:35:26.287Z,46.28
2023-03-26T05:37:52.881Z,53.92
2023-03-26T05:40:22.852Z,46.00
2023-03-26T05:43:08.507Z,54.05
2023-03-26T05:46:00.896Z,45.55
2023-03-26T05:48:30.630Z,47.63
2023-03-26T05:53:26.330Z,55.75
2023-03-26T05:56:25.053Z,46.70
2023-03-26T05:59:20.466Z,42.67
2023-03-26T06:02:05.415Z,52.60
2023-03-26T06:04:41.011Z,49.85
2023-03-26T06:07:33.989Z,47.78
2023-03-26T06:10:18.581Z,49.70
2023-03-26T06:12:46.124Z,48.95
2023-03-26T06:15:12.931Z,58.90
2023-03-26T06:17:46.629Z,49.00
2023-03-26T06:20:33.342Z,43.90
2023-03-26T06:23:04.006Z,45.13
2023-03-26T06:25:45.721Z,50.33
2023-03-26T06:28:36.615Z,43.47
2023-03-26T06:31:21.588Z,42.83
2023-03-26T06:33:56.768Z,48.22
2023-03-26T06:36:23.199Z,50.13
2023-03-26T06:38:50.530Z,44.13
2023-03-26T06:43:56.860Z,43.20
2023-03-26T06:46:41.632Z,43.10
2023-03-26T06:49:26.374Z,40.33
2023-03-26T06:52:15.357Z,43.10
2023-03-26T06:54:48.855Z,40.17
2023-03-26T06:57:35.344Z,41.53
2023-03-26T07:00:21.841Z,32.85
2023-03-26T07:03:06.635Z,36.97
2023-03-26T07:05:51.343Z,37.83
2023-03-26T07:08:46.828Z,41.83
2023-03-26T07:11:39.085Z,40.35
2023-03-26T07:14:32.634Z,39.78
2023-03-26T07:17:19.312Z,36.65
2023-03-26T07:19:53.610Z,39.72
2023-03-26T07:22:24.493Z,38.65
2023-03-26T07:25:17.330Z,39.75
2023-03-26T07:27:46.878Z,40.00
2023-03-26T07:30:34.154Z,32.25
2023-03-26T07:33:19.486Z,37.15
2023-03-26T07:36:05.891Z,34.83
2023-03-26T07:41:51.131Z,33.97
2023-03-26T07:45:01.958Z,31.02
2023-03-26T07:47:47.082Z,37.40
2023-03-26T07:50:38.745Z,31.05
2023-03-26T07:53:11.766Z,37.95
2023-03-26T07:55:57.954Z,39.03
2023-03-26T08:01:47.215Z,36.75
2023-03-26T08:04:28.123Z,40.80
2023-03-26T08:07:17.951Z,49.63
2023-03-26T08:10:04.735Z,39.10
2023-03-26T08:13:10.772Z,33.97
2023-03-26T08:18:08.417Z,42.53
2023-03-26T08:20:47.776Z,40.70
2023-03-26T08:23:19.374Z,42.38
2023-03-26T08:25:49.908Z,38.08
2023-03-26T08:28:16.339Z,42.42
2023-03-26T08:30:43.208Z,43.20
2023-03-26T08:33:12.842Z,33.63
2023-03-26T08:35:42.475Z,45.63
2023-03-26T08:38:09.860Z,42.00
2023-03-26T08:40:55.402Z,33.85
2023-03-26T08:43:24.966Z,35.72
2023-03-26T08:46:15.604Z,38.75
2023-03-26T08:48:51.035Z,38.15
2023-03-26T08:51:27.774Z,42.45
2023-03-26T08:54:13.039Z,46.67
2023-03-26T08:56:46.608Z,41.63
2023-03-26T08:59:19.126Z,38.78
2023-03-26T09:01:51.824Z,40.40
2023-03-26T09:04:37.092Z,38.15
2023-03-26T09:07:21.832Z,33.67
2023-03-26T09:10:06.873Z,40.00
2023-03-26T09:12:36.348Z,40.17
2023-03-26T09:15:21.537Z,35.67
2023-03-26T09:17:48.039Z,35.80
2023-03-26T09:22:41.030Z,31.98
2023-03-26T09:25:15.414Z,39.38
2023-03-26T09:28:11.544Z,43.10
2023-03-26T09:30:43.948Z,39.63
2023-03-26T09:33:21.665Z,45.83
2023-03-26T09:35:54.535Z,46.47
2023-03-26T09:38:39.871Z,53.53
2023-03-26T09:41:15.731Z,50.40
2023-03-26T09:43:51.406Z,51.83
2023-03-26T09:46:23.904Z,54.23
2023-03-26T09:49:01.887Z,47.05
2023-03-26T09:51:37.991Z,47.85
2023-03-26T09:54:17.622Z,42.83
2023-03-26T09:57:06.239Z,33.78
2023-03-26T09:59:32.642Z,37.90
2023-03-26T10:02:17.849Z,42.42
2023-03-26T10:04:44.280Z,38.17
2023-03-26T10:07:24.097Z,34.40
2023-03-26T10:10:05.448Z,37.53
2023-03-26T10:12:36.556Z,40.08
2023-03-26T10:15:18.323Z,34.47
2023-03-26T10:17:51.501Z,33.08
2023-03-26T10:20:33.523Z,31.88
2023-03-26T10:23:00.809Z,37.33
2023-03-26T10:25:53.474Z,33.83
2023-03-26T10:28:20.292Z,32.58
2023-03-26T10:30:59.188Z,28.33
2023-03-26T10:33:46.778Z,27.30
2023-03-26T10:36:33.163Z,24.73
2023-03-26T10:39:37.415Z,24.55
2023-03-26T10:42:05.722Z,22.77
2023-03-26T10:44:44.952Z,25.85
2023-03-26T10:47:14.507Z,25.30
2023-03-26T10:49:44.680Z,27.83
2023-03-26T10:52:15.959Z,17.00
2023-03-26T10:54:48.497Z,23.40
2023-03-26T10:57:24.099Z,21.05
2023-03-26T10:59:51.855Z,21.97
2023-03-26T11:02:30.728Z,17.98
2023-03-26T11:05:00.604Z,20.10
2023-03-26T11:07:30.626Z,19.15
2023-03-26T11:10:04.404Z,19.38
2023-03-26T11:12:41.160Z,16.58
2023-03-26T11:15:17.498Z,23.20
2023-03-26T11:17:49.943Z,18.45
2023-03-26T11:20:28.564Z,17.45
2023-03-26T11:23:04.232Z,18.38
2023-03-26T11:25:31.060Z,16.50
2023-03-26T11:28:16.375Z,20.92
2023-03-26T11:31:09.488Z,22.67
2023-03-26T11:33:45.436Z,26.10
2023-03-26T11:36:33.398Z,20.17
2023-03-26T11:39:01.202Z,20.35
2023-03-26T11:41:31.287Z,19.88
2023-03-26T11:44:08.913Z,17.38
2023-03-26T11:46:38.715Z,16.65
2023-03-26T11:49:09.230Z,15.95
2023-03-26T11:51:36.768Z,17.95
2023-03-26T11:54:04.005Z,15.27
2023-03-26T11:56:36.991Z,18.48
2023-03-26T11:59:11.514Z,19.15
2023-03-26T12:01:50.376Z,17.73
2023-03-26T12:04:25.091Z,17.88
2023-03-26T12:06:53.336Z,16.75
2023-03-26T12:09:20.176Z,20.50
2023-03-26T12:11:50.349Z,21.35
2023-03-26T12:14:17.992Z,22.17
2023-03-26T12:17:01.796Z,15.10
2023-03-26T12:19:34.118Z,22.67
2023-03-26T12:22:00.698Z,21.67
2023-03-26T12:24:28.093Z,15.80
2023-03-26T12:27:02.365Z,15.13
2023-03-26T12:29:34.039Z,21.10
2023-03-26T12:32:18.520Z,19.52
2023-03-26T12:34:46.958Z,21.50
2023-03-26T12:37:34.366Z,16.42
2023-03-26T12:40:22.172Z,20.50
2023-03-26T12:44:50.880Z,17.70
2023-03-26T12:45:41.619Z,15.65
2023-03-26T12:48:10.638Z,18.42
2023-03-26T12:50:47.786Z,13.68
2023-03-26T12:53:29.445Z,11.33
2023-03-26T12:56:00.237Z,12.60
2023-03-26T12:58:26.626Z,13.73
2023-03-26T13:01:03.051Z,16.35
2023-03-26T13:06:06.644Z,13.18
2023-03-26T13:08:39.495Z,12.65
2023-03-26T13:11:08.953Z,9.75
2023-03-26T13:13:56.455Z,14.65
2023-03-26T13:16:36.598Z,19.98
2023-03-26T13:19:09.084Z,16.63
2023-03-26T13:21:38.519Z,14.20
2023-03-26T13:24:15.370Z,11.77
2023-03-26T13:26:48.417Z,16.55
2023-03-26T13:29:20.543Z,13.10
2023-03-26T13:32:05.936Z,12.07
2023-03-26T13:34:44.698Z,11.98
2023-03-26T13:37:34.955Z,9.55
2023-03-26T13:40:22.224Z,18.85
2023-03-26T13:43:05.486Z,12.45
2023-03-26T13:45:31.832Z,13.18
2023-03-26T13:47:59.159Z,10.75
2023-03-26T13:50:27.767Z,14.90
2023-03-26T13:53:01.619Z,15.88
2023-03-26T13:55:28.223Z,14.13
2023-03-26T14:00:41.888Z,11.23
2023-03-26T14:03:13.281Z,10.82
2023-03-26T14:05:42.622Z,11.90
2023-03-26T14:08:21.803Z,14.13
2023-03-26T14:10:51.116Z,10.35
2023-03-26T14:13:20.503Z,10.50
2023-03-26T14:15:48.258Z,10.65
2023-03-26T14:18:33.423Z,10.63
2023-03-26T14:21:18.339Z,12.27
2023-03-26T14:23:54.052Z,9.65
2023-03-26T14:26:20.486Z,10.23
2023-03-26T14:29:05.608Z,9.15
2023-03-26T14:31:51.578Z,11.23
2023-03-26T14:39:13.949Z,10.65
2023-03-26T14:41:48.626Z,10.57
2023-03-26T14:44:48.177Z,10.77
2023-03-26T14:47:15.924Z,8.35
2023-03-26T14:50:04.926Z,10.43
2023-03-26T14:52:37.470Z,6.82
2023-03-26T14:55:05.445Z,13.65
2023-03-26T14:57:44.102Z,7.57
2023-03-26T15:00:41.198Z,11.18
2023-03-26T15:03:13.760Z,7.38
2023-03-26T15:05:59.189Z,9.90
2023-03-26T15:08:45.541Z,9.90
2023-03-26T15:11:50.537Z,8.10
2023-03-26T15:14:34.807Z,9.13
2023-03-26T15:17:10.179Z,12.07
2023-03-26T15:19:55.629Z,10.00
2023-03-26T15:22:40.820Z,8.77
2023-03-26T15:25:10.298Z,10.63
2023-03-26T15:27:38.714Z,12.55
2023-03-26T15:30:13.999Z,8.98
2023-03-26T15:32:59.378Z,10.07
2023-03-26T15:35:26.197Z,10.87
2023-03-26T15:38:01.782Z,11.07
2023-03-26T15:40:34.206Z,8.70
2023-03-26T15:43:20.079Z,10.55
2023-03-26T15:46:05.401Z,10.38
2023-03-26T15:48:36.623Z,12.20
2023-03-26T15:51:06.590Z,13.23
2023-03-26T15:53:41.122Z,13.77
2023-03-26T15:56:12.561Z,11.43
2023-03-26T15:58:45.147Z,7.45
2023-03-26T16:01:19.039Z,10.77
2023-03-26T16:03:51.126Z,11.70
2023-03-26T16:06:20.322Z,10.10
2023-03-26T16:08:47.043Z,9.45
2023-03-26T16:11:13.677Z,12.93
2023-03-26T16:13:40.807Z,9.85
2023-03-26T16:16:16.781Z,12.13
2023-03-26T16:18:44.889Z,8.10
2023-03-26T16:21:31.493Z,12.65
2023-03-26T16:24:02.206Z,9.50
2023-03-26T16:26:31.714Z,7.63
2023-03-26T16:29:18.109Z,9.43
2023-03-26T16:32:03.578Z,12.75
2023-03-26T16:34:38.825Z,7.63
2023-03-26T16:37:07.958Z,9.40
2023-03-26T16:39:38.857Z,7.85
2023-03-26T16:42:28.415Z,9.68
2023-03-26T16:44:54.901Z,11.45
2023-03-26T16:47:37.548Z,9.30
2023-03-26T16:50:24.530Z,7.72
2023-03-26T16:53:00.948Z,8.30
2023-03-26T16:58:13.943Z,10.23
2023-03-26T17:00:59.941Z,7.60
2023-03-26T17:03:47.989Z,6.82
2023-03-26T17:06:18.990Z,8.43
2023-03-26T17:08:54.589Z,12.27
2023-03-26T17:11:25.226Z,12.98
2023-03-26T17:14:03.573Z,8.90
2023-03-26T17:16:30.198Z,5.88
2023-03-26T17:21:45.865Z,12.05
2023-03-26T17:24:22.595Z,8.27
2023-03-26T17:27:21.721Z,8.55
2023-03-26T17:30:00.470Z,5.38
2023-03-26T17:32:47.110Z,6.78
2023-03-26T17:35:15.281Z,8.95
2023-03-26T17:37:47.800Z,9.77
2023-03-26T17:40:29.074Z,8.50
2023-03-26T17:43:18.559Z,8.77
2023-03-26T17:45:47.094Z,7.47
2023-03-26T17:48:34.889Z,12.02
2023-03-26T17:51:13.005Z,11.40
2023-03-26T17:53:40.984Z,8.23
2023-03-26T17:56:13.737Z,9.13
2023-03-26T17:58:45.324Z,10.05
2023-03-26T18:01:18.168Z,7.85
2023-03-26T18:03:49.725Z,12.52
2023-03-26T18:06:36.616Z,9.70
2023-03-26T18:09:12.714Z,9.30
2023-03-26T18:11:58.147Z,8.32
2023-03-26T18:14:39.057Z,11.32
2023-03-26T18:17:08.251Z,15.23
2023-03-26T18:19:48.076Z,8.52
2023-03-26T18:22:18.762Z,9.70
2023-03-26T18:24:45.631Z,11.43
2023-03-26T18:27:14.692Z,6.80
2023-03-26T18:29:56.368Z,9.63
2023-03-26T18:32:31.162Z,9.55
2023-03-26T18:35:20.140Z,10.07
2023-03-26T18:37:49.107Z,8.43
2023-03-26T18:40:16.604Z,6.53
2023-03-26T18:42:55.166Z,7.28
2023-03-26T18:45:29.359Z,8.55
2023-03-26T18:47:57.223Z,10.63
2023-03-26T18:50:27.847Z,10.57
2023-03-26T18:52:56.986Z,7.88
2023-03-26T18:55:26.089Z,11.18
2023-03-26T18:57:52.554Z,17.77
2023-03-26T19:00:21.206Z,12.38
2023-03-26T19:02:49.721Z,10.52
2023-03-26T19:05:16.803Z,10.70
2023-03-26T19:07:45.787Z,17.73
2023-03-26T19:10:18.867Z,10.48
2023-03-26T19:12:46.343Z,7.28
2023-03-26T19:15:13.688Z,8.23
2023-03-26T19:17:42.461Z,11.15
2023-03-26T19:20:14.870Z,10.40
2023-03-26T19:22:42.306Z,14.55
2023-03-26T19:25:16.661Z,10.23
2023-03-26T19:27:43.820Z,11.98
2023-03-26T19:30:14.572Z,9.07
2023-03-26T19:32:41.062Z,11.55
2023-03-26T19:35:19.812Z,15.48
2023-03-26T19:37:50.917Z,10.15
2023-03-26T19:40:21.726Z,9.85
2023-03-26T19:42:48.830Z,10.88
2023-03-26T19:45:17.713Z,9.40
2023-03-26T19:47:52.158Z,8.32
2023-03-26T19:50:28.405Z,11.18
2023-03-26T19:53:16.728Z,7.75
2023-03-26T19:55:52.754Z,11.35
2023-03-26T19:58:19.722Z,11.27
2023-03-26T20:00:46.204Z,8.43
2023-03-26T20:03:13.240Z,12.45
2023-03-26T20:05:39.779Z,7.93
2023-03-26T20:08:16.211Z,12.25
2023-03-26T20:10:43.006Z,9.70
2023-03-26T20:18:04.019Z,9.50
2023-03-26T20:20:31.613Z,9.18
2023-03-26T20:22:58.592Z,8.60
2023-03-26T20:25:31.426Z,14.70
2023-03-26T20:27:59.094Z,11.60
2023-03-26T20:33:13.046Z,9.77
2023-03-26T20:35:40.552Z,10.65
2023-03-26T20:40:36.213Z,13.30
2023-03-26T20:43:02.689Z,12.15
2023-03-26T20:45:29.174Z,10.93
2023-03-26T20:47:55.745Z,11.07
2023-03-26T20:50:23.130Z,11.35
2023-03-26T20:52:50.241Z,7.95
2023-03-26T20:55:17.819Z,11.63
2023-03-26T20:57:46.407Z,15.13
2023-03-26T21:00:20.084Z,9.88
2023-03-26T21:02:46.710Z,11.27
2023-03-26T21:05:18.927Z,9.63
2023-03-26T21:07:45.578Z,8.75
2023-03-26T21:10:13.166Z,6.78
2023-03-26T21:12:46.095Z,12.85
2023-03-26T21:15:22.533Z,7.20
2023-03-26T21:17:51.276Z,10.82
2023-03-26T21:20:18.568Z,7.45
2023-03-26T21:23:00.129Z,7.90
2023-03-26T21:25:31.990Z,9.23
2023-03-26T21:27:58.413Z,5.97
2023-03-26T21:30:25.762Z,8.43
2023-03-26T21:32:52.260Z,14.13
2023-03-26T21:35:19.066Z,10.23
2023-03-26T21:37:48.536Z,12.82
2023-03-26T21:40:16.469Z,7.10
2023-03-26T21:42:44.004Z,10.80
2023-03-26T21:45:10.840Z,6.82
2023-03-26T21:50:04.438Z,5.28
2023-03-26T21:52:31.901Z,9.45
2023-03-26T21:55:00.655Z,6.53
2023-03-26T21:57:39.280Z,6.65
2023-03-26T22:00:11.395Z,11.25
2023-03-26T22:02:56.257Z,8.35
2023-03-26T22:05:26.440Z,9.85
2023-03-26T22:07:56.461Z,9.32
2023-03-26T22:10:23.309Z,9.65
2023-03-26T22:15:18.182Z,9.15
2023-03-26T22:17:45.386Z,9.57
2023-03-26T22:20:13.946Z,7.95
2023-03-26T22:22:41.457Z,5.38
2023-03-26T22:25:10.320Z,12.10
2023-03-26T22:27:44.134Z,7.75
2023-03-26T22:30:11.759Z,8.13
2023-03-26T22:32:38.824Z,18.27
2023-03-26T22:35:05.816Z,6.43
2023-03-26T22:37:32.239Z,8.88
2023-03-26T22:39:59.773Z,8.65
2023-03-26T22:42:26.190Z,9.75
2023-03-26T22:44:52.684Z,5.90
2023-03-26T22:47:21.734Z,10.65
2023-03-26T22:49:48.138Z,7.47
2023-03-26T22:52:14.661Z,11.77
2023-03-26T22:54:41.313Z,7.00
2023-03-26T22:57:07.898Z,8.65
2023-03-26T22:59:34.424Z,10.02
2023-03-26T23:02:01.024Z,7.22
2023-03-26T23:04:32.258Z,8.93
2023-03-26T23:06:59.849Z,9.15
2023-03-26T23:09:26.415Z,6.38
2023-03-26T23:11:52.947Z,7.57
2023-03-26T23:14:19.353Z,8.38
2023-03-26T23:16:45.734Z,8.60
2023-03-26T23:19:12.242Z,7.00
2023-03-26T23:21:38.914Z,6.80
2023-03-26T23:24:05.436Z,7.13
2023-03-26T23:26:43.974Z,6.68
2023-03-26T23:29:16.505Z,8.68
2023-03-26T23:31:43.051Z,5.05
2023-03-26T23:34:10.121Z,6.65
2023-03-26T23:36:36.627Z,11.70
2023-03-26T23:39:04.787Z,6.00
2023-03-26T23:41:31.378Z,7.93
2023-03-26T23:43:57.789Z,8.45
2023-03-26T23:46:25.082Z,7.78
2023-03-26T23:48:52.003Z,3.88
2023-03-26T23:53:46.699Z,4.95
2023-03-26T23:56:13.529Z,6.10
